createdAt,value
2023-04-18T08:36:19.996Z,85.59
2023-04-18T08:37:21.359Z,85.54
2023-04-18T08:43:17.507Z,85.89
2023-04-18T08:45:31.301Z,85.19
2023-04-18T08:47:43.302Z,84.04
2023-04-18T08:49:57.256Z,84.83
2023-04-18T08:52:13.360Z,83.25
2023-04-18T08:55:57.999Z,83.76
2023-04-18T08:58:06.980Z,82.78
2023-04-18T09:04:45.650Z,83.48
2023-04-18T09:26:05.388Z,84.11
2023-04-18T10:13:05.494Z,82.73
2023-04-18T10:15:15.967Z,83.22
2023-04-18T10:20:20.468Z,81.42
2023-04-18T10:22:43.911Z,81.45
2023-04-18T10:23:48.845Z,82.28
2023-04-18T10:24:56.051Z,82.46
2023-04-18T10:25:58.618Z,81.44
2023-04-18T10:27:00.271Z,81.15
2023-04-18T10:28:02.988Z,81.43
2023-04-18T10:29:04.347Z,80.71
2023-04-18T10:30:08.020Z,80.17
2023-04-18T10:31:10.564Z,80.55
2023-04-18T10:36:28.329Z,80.46
2023-04-18T10:44:08.877Z,80.35
2023-04-18T10:45:23.822Z,80.34
2023-04-18T10:46:32.237Z,79.89
2023-04-18T10:47:34.593Z,79.40
2023-04-18T10:48:39.072Z,79.54
2023-04-18T10:49:53.536Z,78.95
2023-04-18T10:51:14.015Z,77.94
2023-04-18T10:52:16.012Z,78.06
2023-04-18T10:53:17.364Z,77.34
2023-04-18T10:54:46.999Z,76.81
2023-04-18T10:55:55.105Z,77.86
2023-04-18T10:57:04.043Z,77.38
2023-04-18T10:58:05.836Z,76.45
2023-04-18T10:59:09.400Z,75.56
2023-04-18T11:00:13.844Z,76.07
2023-04-18T11:01:19.867Z,77.43
2023-04-18T11:02:32.646Z,77.26
2023-04-18T11:03:34.887Z,76.85
2023-04-18T11:04:37.475Z,75.96
2023-04-18T11:05:38.947Z,74.91
2023-04-18T11:06:51.076Z,75.55
2023-04-18T11:07:53.152Z,75.40
2023-04-18T11:09:14.899Z,75.54
2023-04-18T11:10:20.079Z,76.27
2023-04-18T11:11:21.722Z,75.54
2023-04-18T11:12:23.326Z,74.02
2023-04-18T11:13:27.045Z,73.47
2023-04-18T11:14:45.222Z,72.72
2023-04-18T11:15:46.700Z,73.56
2023-04-18T11:16:48.088Z,73.86
2023-04-18T11:18:04.164Z,73.81
2023-04-18T11:19:24.090Z,73.60
2023-04-18T11:20:26.543Z,73.34
2023-04-18T11:21:30.720Z,72.99
2023-04-18T11:22:32.493Z,73.20
2023-04-18T11:23:33.945Z,72.88
2023-04-18T11:24:35.498Z,72.79
2023-04-18T11:25:37.172Z,73.29
2023-04-18T11:26:38.582Z,72.44
2023-04-18T11:27:44.355Z,71.42
2023-04-18T11:28:51.795Z,71.05
2023-04-18T11:29:54.300Z,72.36
2023-04-18T11:30:59.179Z,72.52
2023-04-18T11:32:00.698Z,72.71
2023-04-18T11:33:07.206Z,71.94
2023-04-18T11:34:08.806Z,72.01
2023-04-18T11:35:11.990Z,72.11
2023-04-18T11:36:13.608Z,72.18
2023-04-18T11:37:15.307Z,72.03
2023-04-18T11:38:16.811Z,70.98
2023-04-18T11:39:19.038Z,70.71
2023-04-18T11:40:20.552Z,70.66
2023-04-18T11:41:22.066Z,70.73
2023-04-18T11:42:28.559Z,71.47
2023-04-18T11:43:33.483Z,71.49
2023-04-18T11:44:39.372Z,71.75
2023-04-18T11:45:59.594Z,71.97
2023-04-18T11:47:01.277Z,72.58
2023-04-18T11:48:02.712Z,72.08
2023-04-18T11:49:04.069Z,71.35
2023-04-18T11:50:07.732Z,70.73
2023-04-18T11:51:34.365Z,71.70
2023-04-18T11:52:36.982Z,72.32
2023-04-18T11:53:39.447Z,71.97
2023-04-18T11:54:42.824Z,71.13
2023-04-18T11:55:55.577Z,70.95
2023-04-18T11:56:57.577Z,70.69
2023-04-18T11:58:01.129Z,70.72
2023-04-18T11:59:09.030Z,71.85
2023-04-18T12:00:12.470Z,71.38
2023-04-18T12:01:18.856Z,70.82
2023-04-18T12:02:21.904Z,70.90
2023-04-18T12:03:24.548Z,71.81
2023-04-18T12:04:26.741Z,72.89
2023-04-18T12:05:38.436Z,73.54
2023-04-18T12:06:51.020Z,73.76
2023-04-18T12:07:52.554Z,74.39
2023-04-18T12:09:03.035Z,75.20
2023-04-18T12:10:09.539Z,76.23
2023-04-18T12:11:20.457Z,76.94
2023-04-18T12:12:22.609Z,77.19
2023-04-18T12:28:36.512Z,77.80
2023-04-18T12:29:37.955Z,76.93
2023-04-18T12:30:39.400Z,76.49
2023-04-18T12:31:41.200Z,76.05
2023-04-18T12:32:44.898Z,75.44
2023-04-18T12:33:46.397Z,75.64
2023-04-18T12:34:48.065Z,74.78
2023-04-18T12:35:49.797Z,74.48
2023-04-18T12:36:52.463Z,73.85
2023-04-18T12:37:56.085Z,72.76
2023-04-18T12:38:57.687Z,72.02
2023-04-18T12:39:59.103Z,71.45
2023-04-18T12:41:00.872Z,71.58
2023-04-18T12:42:02.266Z,72.02
2023-04-18T12:43:04.017Z,71.60
2023-04-18T12:44:05.901Z,71.90
2023-04-18T12:45:09.826Z,71.71
2023-04-18T12:46:11.483Z,72.41
2023-04-18T12:47:12.821Z,71.84
2023-04-18T12:48:14.176Z,70.10
2023-04-18T12:49:15.821Z,69.20
2023-04-18T12:50:22.186Z,69.45
2023-04-18T12:51:24.926Z,69.28
2023-04-18T12:52:26.378Z,68.43
2023-04-18T12:53:27.787Z,69.07
2023-04-18T12:54:29.419Z,69.08
2023-04-18T12:55:30.823Z,69.25
2023-04-18T12:56:32.261Z,69.39
2023-04-18T12:57:33.731Z,69.87
2023-04-18T12:58:35.203Z,68.86
2023-04-18T12:59:36.541Z,68.29
2023-04-18T13:00:37.988Z,68.74
2023-04-18T13:01:39.401Z,69.40
2023-04-18T13:02:43.531Z,68.89
2023-04-18T13:03:46.930Z,68.42
2023-04-18T13:04:58.381Z,66.62
2023-04-18T13:05:59.924Z,67.27
2023-04-18T13:07:01.368Z,66.93
2023-04-18T13:09:08.152Z,68.28
2023-04-18T13:10:21.757Z,67.06
2023-04-18T13:11:28.267Z,67.18
2023-04-18T13:12:30.628Z,66.00
2023-04-18T13:13:33.855Z,66.30
2023-04-18T13:14:36.516Z,67.11
2023-04-18T13:15:38.090Z,67.16
2023-04-18T13:16:40.554Z,66.97
2023-04-18T13:17:43.792Z,66.41
2023-04-18T13:18:45.334Z,67.15
2023-04-18T13:19:46.804Z,67.81
2023-04-18T13:20:49.540Z,67.23
2023-04-18T13:21:51.079Z,67.23
2023-04-18T13:22:52.469Z,66.32
2023-04-18T13:23:53.881Z,67.16
2023-04-18T13:24:55.358Z,68.23
2023-04-18T13:25:56.858Z,68.11
2023-04-18T13:26:59.452Z,67.77
2023-04-18T13:28:01.249Z,67.57
2023-04-18T13:29:04.049Z,66.64
2023-04-18T13:30:07.051Z,67.00
2023-04-18T13:31:08.490Z,67.08
2023-04-18T13:32:10.413Z,66.67
2023-04-18T13:33:12.049Z,65.65
2023-04-18T13:34:13.629Z,65.31
2023-04-18T13:35:15.221Z,65.13
2023-04-18T13:36:16.627Z,65.77
2023-04-18T13:37:18.549Z,65.24
2023-04-18T13:38:20.059Z,63.95
2023-04-18T13:39:21.552Z,63.90
2023-04-18T13:40:23.004Z,63.75
2023-04-18T13:41:24.406Z,64.47
2023-04-18T13:42:26.163Z,64.68
2023-04-18T13:43:28.294Z,64.23
2023-04-18T13:44:33.853Z,65.05
2023-04-18T13:45:35.582Z,65.91
2023-04-18T13:46:37.035Z,64.33
2023-04-18T13:47:39.470Z,65.06
2023-04-18T13:48:40.922Z,65.37
2023-04-18T13:49:42.310Z,65.10
2023-04-18T13:50:43.695Z,64.67
2023-04-18T13:51:45.770Z,65.49
2023-04-18T13:52:49.239Z,64.92
2023-04-18T13:53:51.544Z,65.58
2023-04-18T13:54:53.236Z,66.36
2023-04-18T13:55:54.706Z,66.06
2023-04-18T13:56:58.020Z,66.29
2023-04-18T14:13:11.001Z,66.94
2023-04-18T14:14:12.631Z,66.35
2023-04-18T14:15:14.138Z,66.04
2023-04-18T14:16:15.689Z,66.54
2023-04-18T14:17:17.130Z,66.51
2023-04-18T14:18:21.570Z,66.06
2023-04-18T14:19:23.050Z,65.57
2023-04-18T14:20:25.835Z,66.15
2023-04-18T14:21:27.607Z,65.28
2023-04-18T14:25:11.802Z,64.53
2023-04-18T14:26:13.352Z,63.75
2023-04-18T14:29:32.682Z,63.54
2023-04-18T14:32:40.616Z,65.58
2023-04-18T14:48:47.305Z,67.62
2023-04-18T14:51:45.242Z,68.18
2023-04-18T14:54:43.961Z,67.90
2023-04-18T14:57:41.066Z,67.64
2023-04-18T15:00:47.329Z,66.81
2023-04-18T15:01:48.813Z,66.46
2023-04-18T15:02:50.592Z,66.54
2023-04-18T15:03:52.297Z,66.37
2023-04-18T15:04:53.832Z,66.81
2023-04-18T15:08:18.924Z,66.97
2023-04-18T15:09:20.828Z,67.19
2023-04-18T15:12:51.263Z,66.81
2023-04-18T15:16:06.995Z,65.98
